Terminal Aerodrome Forecast
Issued by NWS Houston/Galveston TX

Home | Current Version | Previous Version | Text Only | Print | Product List | Glossary On
Versions: 1 2 3 4 5 6 7 8 9 10 11 12 13 14 15 16 17 18 19 20 21 22 23 24 25 26 27 28 29 30 31 32 33
000
FTUS44 KHGX 272327
TAFHOU
TAF
KHOU 272327Z 2800/2824 05010KT P6SM SCT035 BKN120
     FM280700 07004KT P6SM SCT050 BKN120
     FM281100 02004KT P6SM VCSH SCT015 BKN250
     FM281600 03006KT P6SM VCSH BKN035 OVC100 PROB30 2818/2822 TSRA
      BKN035CB=

USA.gov is the U.S. government's official web portal to all federal, state and local government web resources and services.